Terminal Aerodrome Forecast
Issued by NWS

Home | Current Version | Previous Version | Text Only | Print | Product List | Glossary On
Versions: 1 2 3 4 5 6 7 8 9 10 11 12 13 14 15 16 17 18 19 20
000
FTUS42 KTBW 012000 AAA
TAFPIE
TAF AMD
KPIE 012010Z 0120/0218 29010KT P6SM SCT030 SCT100
     FM020100 VRB03KT P6SM FEW010 SCT025 BKN250
     FM021200 04005KT P6SM VCTS SCT010 BKN035CB BKN100=

USA.gov is the U.S. government's official web portal to all federal, state and local government web resources and services.